createdAt,value
2022-08-05T00:00:18.700Z,100449.66
2022-08-05T00:02:50.944Z,100431.06
2022-08-05T00:06:03.226Z,100439.53
2022-08-05T00:08:34.148Z,100432.09
2022-08-05T00:10:56.967Z,100446.19
2022-08-05T00:13:38.981Z,100442.91
2022-08-05T00:16:08.759Z,100428.47
2022-08-05T00:18:38.014Z,100449.16
2022-08-05T00:21:06.403Z,100452.91
2022-08-05T00:23:45.643Z,100454.19
2022-08-05T00:26:22.310Z,100460.84
2022-08-05T00:28:52.187Z,100459.63
2022-08-05T00:31:53.063Z,100458.16
2022-08-05T00:34:55.795Z,100449.25
2022-08-05T00:37:20.097Z,100450.50
2022-08-05T00:39:58.778Z,100442.69
2022-08-05T00:42:34.539Z,100441.19
2022-08-05T00:45:08.464Z,100426.94
2022-08-05T00:47:53.337Z,100436.69
2022-08-05T00:50:25.280Z,100444.16
2022-08-05T00:52:55.066Z,100447.69
2022-08-05T00:55:23.493Z,100451.81
2022-08-05T00:58:11.389Z,100451.00
2022-08-05T01:00:42.139Z,100445.38
2022-08-05T01:03:22.278Z,100452.66
2022-08-05T01:05:51.238Z,100459.72
2022-08-05T01:08:41.838Z,100466.41
2022-08-05T01:11:13.619Z,100462.47
2022-08-05T01:13:59.081Z,100468.47
2022-08-05T01:16:37.621Z,100467.66
2022-08-05T01:19:17.613Z,100472.84
2022-08-05T01:22:08.061Z,100473.06
2022-08-05T01:24:57.919Z,100478.44
2022-08-05T01:27:55.163Z,100474.13
2022-08-05T01:30:34.534Z,100478.88
2022-08-05T01:33:08.291Z,100489.31
2022-08-05T01:35:51.540Z,100485.59
2022-08-05T01:38:27.482Z,100483.94
2022-08-05T01:40:59.753Z,100488.09
2022-08-05T01:43:32.059Z,100486.06
2022-08-05T01:46:07.150Z,100503.06
2022-08-05T01:48:49.821Z,100518.41
2022-08-05T01:51:19.556Z,100505.13
2022-08-05T01:53:57.545Z,100505.75
2022-08-05T01:58:11.344Z,100508.88
2022-08-05T01:59:23.080Z,100514.25
2022-08-05T02:01:54.847Z,100521.94
2022-08-05T02:04:25.563Z,100530.22
2022-08-05T02:06:53.992Z,100537.53
2022-08-05T02:09:21.971Z,100536.06
2022-08-05T02:11:59.963Z,100546.66
2022-08-05T02:14:33.391Z,100545.81
2022-08-05T02:17:07.838Z,100564.91
2022-08-05T02:19:49.473Z,100577.34
2022-08-05T02:22:26.381Z,100575.88
2022-08-05T02:25:05.751Z,100565.28
2022-08-05T02:27:57.976Z,100582.50
2022-08-05T02:30:34.488Z,100594.31
2022-08-05T02:33:03.847Z,100613.16
2022-08-05T02:35:37.656Z,100608.19
2022-08-05T02:38:19.479Z,100616.25
2022-08-05T02:40:48.176Z,100618.75
2022-08-05T02:43:17.835Z,100634.91
2022-08-05T02:45:52.897Z,100647.56
2022-08-05T02:48:29.496Z,100668.47
2022-08-05T02:51:00.242Z,100675.91
2022-08-05T02:53:29.112Z,100690.59
2022-08-05T02:56:09.304Z,100687.69
2022-08-05T02:58:37.956Z,100675.47
2022-08-05T03:01:19.450Z,100613.97
2022-08-05T03:04:03.146Z,100541.31
2022-08-05T03:06:56.161Z,100456.69
2022-08-05T03:09:27.194Z,100402.28
2022-08-05T03:12:06.176Z,100403.75
2022-08-05T03:14:45.790Z,100450.31
2022-08-05T03:17:15.399Z,100497.84
2022-08-05T03:19:45.594Z,100546.88
2022-08-05T03:22:16.639Z,100568.59
2022-08-05T03:24:50.656Z,100574.00
2022-08-05T03:27:19.769Z,100568.22
2022-08-05T03:30:07.801Z,100565.28
2022-08-05T03:32:37.653Z,100576.28
2022-08-05T03:35:06.784Z,100585.56
2022-08-05T03:37:40.982Z,100583.50
2022-08-05T03:40:15.532Z,100579.78
2022-08-05T03:42:53.063Z,100573.59
2022-08-05T03:45:23.355Z,100571.50
2022-08-05T03:47:56.843Z,100567.78
2022-08-05T03:50:26.991Z,100572.75
2022-08-05T03:55:33.957Z,100586.63
2022-08-05T03:56:09.949Z,100575.66
2022-08-05T03:58:43.999Z,100574.81
2022-08-05T04:01:14.279Z,100547.50
2022-08-05T04:04:05.382Z,100559.94
2022-08-05T04:06:36.395Z,100540.50
2022-08-05T04:09:06.354Z,100541.72
2022-08-05T04:11:50.636Z,100542.75
2022-08-05T04:14:29.878Z,100528.47
2022-08-05T04:17:00.651Z,100522.06
2022-08-05T04:19:30.877Z,100534.47
2022-08-05T04:22:09.352Z,100533.44
2022-08-05T04:24:44.384Z,100521.44
2022-08-05T04:27:13.101Z,100494.09
2022-08-05T04:29:41.298Z,100492.28
2022-08-05T04:32:09.272Z,100476.75
2022-08-05T04:34:42.625Z,100458.56
2022-08-05T04:37:10.982Z,100477.19
2022-08-05T04:39:39.179Z,100514.22
2022-08-05T04:42:09.157Z,100496.19
2022-08-05T04:44:37.111Z,100496.19
2022-08-05T04:47:09.409Z,100513.78
2022-08-05T04:50:02.610Z,100537.16
2022-08-05T04:52:28.110Z,100541.91
2022-08-05T04:54:58.852Z,100551.63
2022-08-05T04:57:29.229Z,100566.09
2022-08-05T04:59:58.527Z,100576.19
2022-08-05T05:02:37.402Z,100574.34
2022-08-05T05:05:16.730Z,100571.47
2022-08-05T05:07:56.663Z,100572.69
2022-08-05T05:10:29.730Z,100562.97
2022-08-05T05:12:57.821Z,100560.63
2022-08-05T05:15:56.796Z,100563.75
2022-08-05T05:18:15.131Z,100557.38
2022-08-05T05:20:58.525Z,100561.94
2022-08-05T05:23:26.551Z,100554.06
2022-08-05T05:25:54.425Z,100547.50
2022-08-05T05:28:22.238Z,100554.94
2022-08-05T05:30:52.686Z,100510.22
2022-08-05T05:33:23.343Z,100549.94
2022-08-05T05:35:51.857Z,100552.25
2022-08-05T05:38:27.287Z,100562.38
2022-08-05T05:40:58.995Z,100548.09
2022-08-05T05:43:54.267Z,100562.59
2022-08-05T05:46:17.756Z,100566.94
2022-08-05T05:48:49.177Z,100572.31
2022-08-05T05:51:21.919Z,100558.88
2022-08-05T05:53:57.251Z,100555.16
2022-08-05T05:56:32.618Z,100565.69
2022-08-05T05:59:05.374Z,100576.06
2022-08-05T06:01:37.761Z,100575.22
2022-08-05T06:04:08.057Z,100561.13
2022-08-05T06:06:36.451Z,100578.31
2022-08-05T06:09:07.487Z,100577.88
2022-08-05T06:11:35.701Z,100571.06
2022-08-05T06:14:07.444Z,100573.13
2022-08-05T06:16:37.297Z,100577.09
2022-08-05T06:19:07.577Z,100586.16
2022-08-05T06:21:38.854Z,100588.00
2022-08-05T06:24:12.811Z,100602.72
2022-08-05T06:26:52.137Z,100604.56
2022-08-05T06:29:43.194Z,100611.19
2022-08-05T06:32:24.943Z,100619.00
2022-08-05T06:34:56.090Z,100619.84
2022-08-05T06:37:58.368Z,100612.41
2022-08-05T06:40:18.161Z,100605.81
2022-08-05T06:42:52.011Z,100621.31
2022-08-05T06:45:44.467Z,100619.44
2022-08-05T06:48:37.316Z,100609.31
2022-08-05T06:50:58.387Z,100609.97
2022-08-05T06:53:29.288Z,100621.09
2022-08-05T06:55:59.468Z,100621.50
2022-08-05T06:58:34.697Z,100617.56
2022-08-05T07:01:05.189Z,100610.72
2022-08-05T07:03:33.455Z,100632.66
2022-08-05T07:06:05.832Z,100634.72
2022-08-05T07:08:43.170Z,100602.84
2022-08-05T07:11:17.502Z,100633.13
2022-08-05T07:14:07.555Z,100636.84
2022-08-05T07:18:09.381Z,100640.56
2022-08-05T07:22:35.895Z,100656.69
2022-08-05T07:25:23.258Z,100660.41
2022-08-05T07:27:58.239Z,100664.56
2022-08-05T07:30:32.820Z,100672.00
2022-08-05T07:33:05.372Z,100679.41
2022-08-05T07:36:01.695Z,100683.56
2022-08-05T07:38:32.210Z,100678.41
2022-08-05T07:42:06.759Z,100683.72
2022-08-05T07:43:56.182Z,100686.03
2022-08-05T07:46:26.170Z,100687.25
2022-08-05T07:49:01.614Z,100690.97
2022-08-05T07:51:36.625Z,100690.56
2022-08-05T07:54:09.691Z,100700.50
2022-08-05T07:57:00.265Z,100699.84
2022-08-05T07:59:38.341Z,100698.19
2022-08-05T08:02:15.210Z,100705.44
2022-08-05T08:04:44.870Z,100719.50
2022-08-05T08:07:13.225Z,100719.69
2022-08-05T08:09:41.196Z,100729.81
2022-08-05T08:12:20.229Z,100728.19
2022-08-05T08:15:02.291Z,100738.09
2022-08-05T08:17:31.190Z,100745.50
2022-08-05T08:20:22.956Z,100745.03
2022-08-05T08:22:52.105Z,100745.78
2022-08-05T08:25:27.157Z,100742.84
2022-08-05T08:28:18.027Z,100754.38
2022-08-05T08:30:49.819Z,100751.50
2022-08-05T08:33:19.205Z,100767.16
2022-08-05T08:35:53.950Z,100757.69
2022-08-05T08:38:35.087Z,100764.09
2022-08-05T08:41:08.321Z,100765.38
2022-08-05T08:45:16.389Z,100763.25
2022-08-05T08:46:29.199Z,100764.94
2022-08-05T08:49:06.121Z,100771.78
2022-08-05T08:52:02.955Z,100734.97
2022-08-05T08:54:33.705Z,100786.56
2022-08-05T08:57:11.290Z,100785.97
2022-08-05T08:59:41.911Z,100799.41
2022-08-05T09:02:19.007Z,100796.28
2022-08-05T09:05:16.994Z,100805.59
2022-08-05T09:07:39.756Z,100810.16
2022-08-05T09:10:27.827Z,100819.81
2022-08-05T09:13:04.871Z,100819.97
2022-08-05T09:15:36.925Z,100826.16
2022-08-05T09:18:09.419Z,100824.41
2022-08-05T09:20:38.288Z,100830.06
2022-08-05T09:23:18.766Z,100820.72
2022-08-05T09:26:03.017Z,100820.91
2022-08-05T09:28:34.519Z,100826.91
2022-08-05T09:31:22.386Z,100828.06
2022-08-05T09:33:56.580Z,100817.47
2022-08-05T09:36:27.744Z,100821.25
2022-08-05T09:39:03.730Z,100825.78
2022-08-05T09:42:00.483Z,100831.53
2022-08-05T09:44:39.906Z,100826.16
2022-08-05T09:47:15.793Z,100833.97
2022-08-05T09:50:01.535Z,100833.84
2022-08-05T09:52:32.365Z,100838.28
2022-08-05T09:55:55.053Z,100842.84
2022-08-05T09:57:54.676Z,100844.16
2022-08-05T10:00:26.786Z,100849.44
2022-08-05T10:02:58.608Z,100853.28
2022-08-05T10:05:32.978Z,100870.00
2022-08-05T10:08:36.552Z,100866.72
2022-08-05T10:10:54.661Z,100862.22
2022-08-05T10:13:45.817Z,100880.38
2022-08-05T10:16:37.600Z,100888.06
2022-08-05T10:19:10.187Z,100896.13
2022-08-05T10:21:41.295Z,100894.91
2022-08-05T10:24:13.244Z,100902.78
2022-08-05T10:26:51.858Z,100905.28
2022-08-05T10:29:23.965Z,100906.50
2022-08-05T10:32:53.219Z,100905.66
2022-08-05T10:35:00.873Z,100904.81
2022-08-05T10:37:45.009Z,100898.38
2022-08-05T10:40:28.312Z,100911.84
2022-08-05T10:43:12.413Z,100919.44
2022-08-05T10:45:42.332Z,100929.06
2022-08-05T10:48:35.063Z,100938.78
2022-08-05T10:51:21.724Z,100929.25
2022-08-05T10:53:58.169Z,100947.16
2022-08-05T10:56:28.673Z,100942.03
2022-08-05T10:59:11.458Z,100965.19
2022-08-05T11:01:55.643Z,100961.81
2022-08-05T11:04:34.359Z,100961.56
2022-08-05T11:07:06.965Z,100966.16
2022-08-05T11:09:46.058Z,100969.28
2022-08-05T11:12:50.882Z,100967.16
2022-08-05T11:15:44.025Z,100979.81
2022-08-05T11:18:30.074Z,100981.78
2022-08-05T11:21:00.091Z,100994.25
2022-08-05T11:24:02.722Z,100998.19
2022-08-05T11:26:28.031Z,100998.72
2022-08-05T11:29:06.659Z,101000.44
2022-08-05T11:31:57.537Z,100999.94
2022-08-05T11:34:39.900Z,100989.81
2022-08-05T11:38:28.239Z,100996.69
2022-08-05T11:41:15.457Z,101007.09
2022-08-05T11:44:04.950Z,100997.31
2022-08-05T11:46:37.898Z,101002.59
2022-08-05T11:49:25.695Z,101003.22
2022-08-05T11:51:54.327Z,101004.34
2022-08-05T11:54:33.094Z,101004.38
2022-08-05T11:57:08.661Z,100997.25
2022-08-05T11:59:54.068Z,101001.72
2022-08-05T12:02:31.482Z,101001.19
2022-08-05T12:05:07.385Z,101010.59
2022-08-05T12:08:08.670Z,101009.03
2022-08-05T12:10:45.612Z,101011.25
2022-08-05T12:13:27.809Z,101006.25
2022-08-05T12:16:14.616Z,101016.03
2022-08-05T12:18:49.578Z,101015.13
2022-08-05T12:21:24.226Z,101025.63
2022-08-05T12:24:11.325Z,101026.09
2022-08-05T12:26:44.053Z,101022.94
2022-08-05T12:29:16.437Z,101021.31
2022-08-05T12:31:53.752Z,101038.25
2022-08-05T12:34:25.952Z,101032.66
2022-08-05T12:36:54.437Z,101029.06
2022-08-05T12:39:28.287Z,101043.22
2022-08-05T12:42:09.909Z,101039.56
2022-08-05T12:44:48.010Z,101035.44
2022-08-05T12:47:28.623Z,101038.44
2022-08-05T12:50:02.153Z,101039.25
2022-08-05T12:52:38.768Z,101047.22
2022-08-05T12:55:22.174Z,101053.31
2022-08-05T12:58:49.514Z,101051.44
2022-08-05T13:02:00.182Z,101053.06
2022-08-05T13:03:41.553Z,101053.28
2022-08-05T13:06:17.243Z,101045.09
2022-08-05T13:08:50.741Z,101062.63
2022-08-05T13:11:47.073Z,101066.56
2022-08-05T13:14:14.750Z,101064.31
2022-08-05T13:16:50.799Z,101080.13
2022-08-05T13:19:22.334Z,101079.56
2022-08-05T13:21:52.510Z,101075.28
2022-08-05T13:24:36.206Z,101072.84
2022-08-05T13:27:22.912Z,101075.47
2022-08-05T13:30:36.153Z,101082.03
2022-08-05T13:32:50.600Z,101083.91
2022-08-05T13:35:22.100Z,101088.75
2022-08-05T13:38:04.908Z,101085.00
2022-08-05T13:40:48.037Z,101085.41
2022-08-05T13:43:21.822Z,101082.31
2022-08-05T13:45:50.701Z,101092.13
2022-08-05T13:48:57.850Z,101086.13
2022-08-05T13:51:09.605Z,101090.97
2022-08-05T13:53:47.969Z,101085.88
2022-08-05T13:56:18.777Z,101085.16
2022-08-05T13:58:52.727Z,101089.91
2022-08-05T14:01:25.827Z,101101.88
2022-08-05T14:04:21.915Z,101093.00
2022-08-05T14:09:29.867Z,101094.19
2022-08-05T14:12:03.976Z,101085.28
2022-08-05T14:14:33.754Z,101088.00
2022-08-05T14:17:01.873Z,101091.53
2022-08-05T14:19:30.615Z,101098.00
2022-08-05T14:22:18.455Z,101114.03
2022-08-05T14:24:48.587Z,101072.06
2022-08-05T14:27:18.780Z,101087.47
2022-08-05T14:29:51.287Z,101109.69
2022-08-05T14:32:27.074Z,101122.16
2022-08-05T14:34:56.756Z,101122.38
2022-08-05T14:37:45.425Z,101125.06
2022-08-05T14:40:16.930Z,101119.88
2022-08-05T14:42:45.027Z,101116.09
2022-08-05T14:45:13.315Z,101121.03
2022-08-05T14:48:03.162Z,101115.19
2022-08-05T14:50:30.901Z,101133.16
2022-08-05T14:52:59.568Z,101128.44
2022-08-05T14:55:39.046Z,101132.22
2022-08-05T14:58:12.125Z,101126.00
2022-08-05T15:00:59.822Z,101117.13
2022-08-05T15:03:34.042Z,101127.28
2022-08-05T15:06:14.838Z,101131.03
2022-08-05T15:09:01.295Z,101125.22
2022-08-05T15:11:52.363Z,101126.03
2022-08-05T15:14:34.595Z,101118.97
2022-08-05T15:17:44.563Z,101120.25
2022-08-05T15:19:57.920Z,101126.47
2022-08-05T15:22:27.190Z,101128.53
2022-08-05T15:24:55.578Z,101094.06
2022-08-05T15:27:25.872Z,101131.47
2022-08-05T15:29:54.289Z,101124.03
2022-08-05T15:32:27.385Z,101136.50
2022-08-05T15:34:57.085Z,101130.47
2022-08-05T15:38:32.842Z,101129.44
2022-08-05T15:40:59.683Z,101129.81
2022-08-05T15:43:12.816Z,101139.00
2022-08-05T15:45:47.822Z,101129.00
2022-08-05T15:48:28.718Z,101135.41
2022-08-05T15:50:56.638Z,101136.88
2022-08-05T15:53:26.545Z,101131.47
2022-08-05T15:56:09.141Z,101133.34
2022-08-05T15:58:43.468Z,101125.69
2022-08-05T16:01:16.372Z,101133.56
2022-08-05T16:03:48.352Z,101137.09
2022-08-05T16:06:19.864Z,101135.66
2022-08-05T16:08:51.123Z,101119.44
2022-08-05T16:11:40.076Z,101142.09
2022-08-05T16:14:17.195Z,101142.91
2022-08-05T16:16:46.300Z,101144.78
2022-08-05T16:19:25.669Z,101140.22
2022-08-05T16:22:03.382Z,101146.41
2022-08-05T16:24:39.827Z,101148.53
2022-08-05T16:27:16.176Z,101152.28
2022-08-05T16:29:50.389Z,101145.22
2022-08-05T16:32:28.453Z,101151.88
2022-08-05T16:34:57.745Z,101160.16
2022-08-05T16:38:03.341Z,101149.53
2022-08-05T16:40:26.539Z,101167.22
2022-08-05T16:42:57.348Z,101164.88
2022-08-05T16:46:06.026Z,101161.59
2022-08-05T16:48:25.124Z,101179.22
2022-08-05T16:50:54.353Z,101163.19
2022-08-05T16:53:32.397Z,101175.69
2022-08-05T16:56:10.615Z,101171.72
2022-08-05T16:58:40.753Z,101193.72
2022-08-05T17:01:10.800Z,101188.31
2022-08-05T17:03:38.892Z,101185.41
2022-08-05T17:06:07.447Z,101194.97
2022-08-05T17:08:52.125Z,101202.81
2022-08-05T17:11:23.965Z,101173.31
2022-08-05T17:14:00.293Z,101194.94
2022-08-05T17:16:35.863Z,101201.34
2022-08-05T17:19:07.402Z,101213.19
2022-08-05T17:21:39.396Z,101099.84
2022-08-05T17:24:18.438Z,101169.53
2022-08-05T17:26:57.440Z,101208.22
2022-08-05T17:29:33.083Z,101209.00
2022-08-05T17:32:11.243Z,101221.06
2022-08-05T17:34:44.402Z,101218.38
2022-08-05T17:37:40.864Z,101204.41
2022-08-05T17:40:02.139Z,101226.28
2022-08-05T17:42:32.968Z,101226.91
2022-08-05T17:45:10.079Z,101223.78
2022-08-05T17:47:54.107Z,101226.47
2022-08-05T17:50:28.190Z,101225.63
2022-08-05T17:52:59.973Z,101223.13
2022-08-05T17:55:34.333Z,101236.44
2022-08-05T17:58:09.439Z,101238.09
2022-08-05T18:00:44.407Z,101242.22
2022-08-05T18:06:11.179Z,101260.88
2022-08-05T18:08:44.142Z,101261.06
2022-08-05T18:11:23.934Z,101268.94
2022-08-05T18:14:00.676Z,101260.59
2022-08-05T18:16:31.621Z,101269.53
2022-08-05T18:19:00.808Z,101269.47
2022-08-05T18:22:09.114Z,101277.56
2022-08-05T18:24:16.340Z,101279.38
2022-08-05T18:26:44.163Z,101282.47
2022-08-05T18:29:12.029Z,101290.94
2022-08-05T18:31:44.650Z,101300.28
2022-08-05T18:34:14.848Z,101305.44
2022-08-05T18:36:43.674Z,101304.16
2022-08-05T18:39:42.264Z,101309.50
2022-08-05T18:42:03.661Z,101315.28
2022-08-05T18:44:35.353Z,101311.31
2022-08-05T18:47:16.955Z,101313.94
2022-08-05T18:50:03.407Z,101323.44
2022-08-05T18:52:41.604Z,101313.88
2022-08-05T18:55:21.448Z,101324.88
2022-08-05T18:57:52.680Z,101328.78
2022-08-05T19:00:29.044Z,101327.09
2022-08-05T19:03:03.366Z,101330.59
2022-08-05T19:06:11.128Z,101321.06
2022-08-05T19:08:22.409Z,101336.47
2022-08-05T19:10:59.623Z,101343.63
2022-08-05T19:13:36.126Z,101334.72
2022-08-05T19:16:25.366Z,101346.72
2022-08-05T19:18:56.702Z,101346.00
2022-08-05T19:21:27.533Z,101354.94
2022-08-05T19:24:06.902Z,101358.38
2022-08-05T19:26:54.847Z,101351.81
2022-08-05T19:29:36.126Z,101366.75
2022-08-05T19:32:08.559Z,101377.53
2022-08-05T19:34:39.676Z,101372.53
2022-08-05T19:37:10.498Z,101376.97
2022-08-05T19:39:45.888Z,101370.78
2022-08-05T19:42:35.803Z,101395.09
2022-08-05T19:45:05.858Z,101395.19
2022-08-05T19:47:34.688Z,101398.63
2022-08-05T19:50:07.853Z,101411.06
2022-08-05T19:52:41.707Z,101391.75
2022-08-05T19:56:13.796Z,101390.25
2022-08-05T19:58:07.104Z,101417.56
2022-08-05T20:00:46.896Z,101428.69
2022-08-05T20:03:15.219Z,101440.63
2022-08-05T20:05:51.692Z,101425.09
2022-08-05T20:08:24.227Z,101435.31
2022-08-05T20:10:53.411Z,101437.19
2022-08-05T20:13:55.060Z,101443.31
2022-08-05T20:16:10.879Z,101448.03
2022-08-05T20:18:38.715Z,101449.53
2022-08-05T20:21:07.824Z,101448.56
2022-08-05T20:23:51.301Z,101455.16
2022-08-05T20:26:22.039Z,101448.63
2022-08-05T20:28:55.569Z,101452.78
2022-08-05T20:31:28.762Z,101468.56
2022-08-05T20:34:05.738Z,101446.09
2022-08-05T20:36:36.380Z,101470.13
2022-08-05T20:39:10.371Z,101480.22
2022-08-05T20:41:43.870Z,101479.22
2022-08-05T20:44:19.223Z,101487.81
2022-08-05T20:46:57.779Z,101491.88
2022-08-05T20:49:26.174Z,101504.81
2022-08-05T20:51:54.360Z,101505.22
2022-08-05T20:54:25.257Z,101500.84
2022-08-05T20:56:53.160Z,101485.78
2022-08-05T20:59:27.055Z,101503.22
2022-08-05T21:02:09.889Z,101507.28
2022-08-05T21:04:38.386Z,101512.31
2022-08-05T21:07:08.473Z,101502.09
2022-08-05T21:09:38.300Z,101500.94
2022-08-05T21:12:21.672Z,101506.66
2022-08-05T21:14:53.993Z,101511.19
2022-08-05T21:17:22.748Z,101517.75
2022-08-05T21:19:52.027Z,101523.94
2022-08-05T21:22:23.577Z,101465.97
2022-08-05T21:24:54.303Z,101524.03
2022-08-05T21:27:24.733Z,101508.81
2022-08-05T21:29:55.816Z,101518.91
2022-08-05T21:32:24.658Z,101519.75
2022-08-05T21:35:09.031Z,101531.03
2022-08-05T21:37:47.313Z,101536.25
2022-08-05T21:40:23.296Z,101531.94
2022-08-05T21:42:53.511Z,101539.50
2022-08-05T21:45:24.728Z,101542.53
2022-08-05T21:47:57.259Z,101547.38
2022-08-05T21:50:26.286Z,101544.88
2022-08-05T21:52:58.896Z,101544.22
2022-08-05T21:56:01.720Z,101545.88
2022-08-05T21:58:31.965Z,101543.91
2022-08-05T22:01:00.779Z,101552.63
2022-08-05T22:03:52.738Z,101551.94
2022-08-05T22:06:22.833Z,101556.47
2022-08-05T22:08:52.144Z,101560.66
2022-08-05T22:11:34.462Z,101519.47
2022-08-05T22:14:19.471Z,101531.19
2022-08-05T22:16:56.048Z,101564.88
2022-08-05T22:20:02.747Z,101572.44
2022-08-05T22:22:15.425Z,101567.06
2022-08-05T22:25:01.662Z,101571.09
2022-08-05T22:28:09.782Z,101564.53
2022-08-05T22:30:35.408Z,101567.06
2022-08-05T22:33:03.833Z,101575.09
2022-08-05T22:35:47.743Z,101572.75
2022-08-05T22:38:16.722Z,101575.94
2022-08-05T22:40:49.998Z,101570.56
2022-08-05T22:43:36.944Z,101576.75
2022-08-05T22:46:13.181Z,101580.13
2022-08-05T22:48:49.025Z,101587.84
2022-08-05T22:51:22.647Z,101588.84
2022-08-05T22:53:51.994Z,101597.56
2022-08-05T22:56:30.768Z,101595.38
2022-08-05T22:59:03.219Z,101606.63
2022-08-05T23:02:04.630Z,101602.41
2022-08-05T23:04:34.348Z,101592.22
2022-08-05T23:07:02.164Z,101601.09
2022-08-05T23:09:57.252Z,101581.81
2022-08-05T23:12:18.446Z,101611.66
2022-08-05T23:14:53.136Z,101616.69
2022-08-05T23:17:35.037Z,101614.19
2022-08-05T23:20:10.425Z,101614.50
2022-08-05T23:22:47.686Z,101619.03
2022-08-05T23:25:54.854Z,101628.25
2022-08-05T23:28:07.120Z,101629.56
2022-08-05T23:30:39.820Z,101633.78
2022-08-05T23:33:15.932Z,101638.63
2022-08-05T23:35:50.862Z,101642.84
2022-08-05T23:38:19.136Z,101652.22
2022-08-05T23:40:49.852Z,101647.84
2022-08-05T23:43:25.685Z,101651.22
2022-08-05T23:46:19.881Z,101652.22
2022-08-05T23:49:00.942Z,101663.09
2022-08-05T23:51:54.013Z,101647.66
2022-08-05T23:54:25.878Z,101662.22
2022-08-05T23:56:56.005Z,101668.75
2022-08-05T23:59:37.349Z,101662.53
